Time;durP1;ratioP1;P1;durP2;ratioP2;P2;SDS_P1;SDS_P2;PMS_P1;PMS_P2;Temp;Humidity;BMP_temperature;BMP_pressure;BME280_temperature;BME280_humidity;BME280_pressure;Samples;Min_cycle;Max_cycle;Signal;HPM_P1;HPM_P2
2023/01/22 00:02:14;;;;;;;41.20;28.40;;;;;;;2.81;100.00;100872.52;109304;1256;69864;-68
2023/01/22 00:04:41;;;;;;;45.90;28.30;;;;;;;2.76;100.00;100878.93;109282;1256;73343;-70
2023/01/22 00:07:08;;;;;;;38.60;23.60;;;;;;;2.77;100.00;100881.48;109175;1256;61715;-68
2023/01/22 00:09:35;;;;;;;46.70;26.30;;;;;;;2.79;100.00;100887.22;109182;1260;62584;-69
2023/01/22 00:12:02;;;;;;;38.40;23.50;;;;;;;2.82;100.00;100887.30;109184;1257;74967;-69
2023/01/22 00:14:28;;;;;;;43.10;26.00;;;;;;;2.84;100.00;100884.26;109284;1256;69833;-69
2023/01/22 00:16:55;;;;;;;35.10;23.80;;;;;;;2.87;100.00;100886.41;109138;1257;71830;-69
2023/01/22 00:19:22;;;;;;;39.20;24.10;;;;;;;2.91;100.00;100887.20;109026;1257;62174;-66
2023/01/22 00:21:49;;;;;;;40.60;23.40;;;;;;;2.92;100.00;100886.56;109139;1257;59907;-69
2023/01/22 00:24:16;;;;;;;43.80;26.50;;;;;;;2.94;100.00;100881.70;109128;1257;74968;-70
2023/01/22 00:26:43;;;;;;;47.40;27.50;;;;;;;2.93;100.00;100882.64;109229;1256;66478;-68
2023/01/22 00:29:10;;;;;;;41.70;23.80;;;;;;;2.88;100.00;100884.27;109205;1256;74604;-70
2023/01/22 00:31:38;;;;;;;46.00;25.80;;;;;;;2.88;100.00;100892.97;109179;1257;61978;-69
2023/01/22 00:34:07;;;;;;;35.80;22.70;;;;;;;2.88;100.00;100893.55;109226;1257;60340;-69
2023/01/22 00:36:34;;;;;;;47.10;26.30;;;;;;;2.90;100.00;100896.59;109192;1256;74363;-69
2023/01/22 00:39:01;;;;;;;40.40;23.70;;;;;;;2.91;100.00;100899.71;109202;1256;70092;-69
2023/01/22 00:41:28;;;;;;;39.50;22.80;;;;;;;2.92;100.00;100905.13;109066;1259;72633;-70
2023/01/22 00:43:54;;;;;;;42.00;24.20;;;;;;;2.91;100.00;100907.36;109132;1257;61206;-69
2023/01/22 00:46:21;;;;;;;49.00;28.20;;;;;;;2.89;100.00;100913.98;109149;1257;58991;-69
2023/01/22 00:48:49;;;;;;;40.80;24.30;;;;;;;2.90;100.00;100912.97;109105;1257;71769;-68
2023/01/22 00:51:16;;;;;;;39.20;22.60;;;;;;;2.96;100.00;100912.68;109158;1257;70780;-70
2023/01/22 00:53:43;;;;;;;35.90;22.40;;;;;;;2.97;100.00;100914.06;109111;1257;72246;-70
2023/01/22 00:56:11;;;;;;;39.80;24.10;;;;;;;2.95;100.00;100917.34;109093;1257;63162;-67
2023/01/22 00:58:38;;;;;;;38.30;22.20;;;;;;;2.93;100.00;100918.80;109174;1257;58505;-68
2023/01/22 01:01:05;;;;;;;38.80;24.80;;;;;;;2.94;100.00;100920.42;109130;1257;74145;-70
2023/01/22 01:03:32;;;;;;;45.90;27.80;;;;;;;2.97;100.00;100927.69;109116;1257;67255;-71
2023/01/22 01:06:07;;;;;;;46.50;26.20;;;;;;;2.97;100.00;100927.86;109019;1257;73592;-70
2023/01/22 01:08:36;;;;;;;37.60;22.80;;;;;;;3.01;100.00;100931.83;109186;1256;63936;-69
2023/01/22 01:11:05;;;;;;;35.50;22.10;;;;;;;3.03;100.00;100930.59;109189;1257;60305;-69
2023/01/22 01:13:36;;;;;;;40.20;24.10;;;;;;;3.04;100.00;100930.19;109082;1257;74399;-68
2023/01/22 01:16:05;;;;;;;37.90;24.40;;;;;;;3.03;100.00;100928.64;109184;1257;67200;-69
2023/01/22 01:18:32;;;;;;;36.00;21.70;;;;;;;3.05;100.00;100936.70;109047;1257;71799;-69
2023/01/22 01:21:00;;;;;;;35.40;23.00;;;;;;;3.10;100.00;100938.32;109038;1257;62751;-70
2023/01/22 01:23:27;;;;;;;38.60;22.60;;;;;;;3.17;100.00;100939.30;109130;1257;60398;-69
2023/01/22 01:25:54;;;;;;;37.90;23.90;;;;;;;3.22;100.00;100946.39;109090;1260;70902;-68
2023/01/22 01:28:21;;;;;;;47.80;28.40;;;;;;;3.16;100.00;100943.41;109128;1257;69207;-69
2023/01/22 01:30:48;;;;;;;40.10;23.00;;;;;;;3.11;100.00;100944.48;109075;1259;75452;-68
2023/01/22 01:33:15;;;;;;;34.10;21.00;;;;;;;3.11;100.00;100951.52;109053;1257;60089;-69
2023/01/22 01:35:42;;;;;;;36.40;21.20;;;;;;;3.09;100.00;100951.38;109123;1257;61071;-68
2023/01/22 01:38:08;;;;;;;38.00;25.20;;;;;;;3.11;100.00;100950.24;109131;1257;72497;-69
2023/01/22 01:40:40;;;;;;;39.70;24.40;;;;;;;3.16;100.00;100955.17;109125;1257;68236;-69
2023/01/22 01:43:13;;;;;;;38.10;23.80;;;;;;;3.20;100.00;100951.29;109115;1257;73281;-70
2023/01/22 01:45:40;;;;;;;45.00;25.30;;;;;;;3.18;100.00;100952.30;109067;1257;62063;-69
2023/01/22 01:48:29;;;;;;;41.30;24.50;;;;;;;3.18;100.00;100950.25;109164;1257;58502;-69
2023/01/22 01:51:01;;;;;;;39.40;22.50;;;;;;;3.16;100.00;100952.73;109127;1257;75134;-69
2023/01/22 01:53:28;;;;;;;43.80;25.00;;;;;;;3.14;100.00;100954.79;109115;1260;66472;-69
2023/01/22 01:55:55;;;;;;;36.70;22.30;;;;;;;3.09;100.00;100951.18;109044;1257;74638;-69
2023/01/22 01:58:22;;;;;;;39.30;25.30;;;;;;;3.08;100.00;100953.95;109104;1257;60872;-69
2023/01/22 02:00:50;;;;;;;39.70;23.80;;;;;;;3.12;100.00;100954.05;109158;1257;60753;-70
2023/01/22 02:03:17;;;;;;;36.70;22.80;;;;;;;3.11;100.00;100957.36;109064;1257;75873;-70
2023/01/22 02:05:44;;;;;;;40.90;23.90;;;;;;;3.05;100.00;100956.97;109078;1257;67062;-70
2023/01/22 02:08:11;;;;;;;34.10;22.50;;;;;;;3.04;100.00;100961.66;109128;1257;74718;-69
2023/01/22 02:10:38;;;;;;;35.60;23.00;;;;;;;3.05;100.00;100963.86;108965;1257;61557;-69
2023/01/22 02:13:09;;;;;;;32.50;22.50;;;;;;;3.06;100.00;100966.20;109128;1257;60419;-69
2023/01/22 02:15:36;;;;;;;43.80;24.10;;;;;;;3.10;100.00;100966.00;109000;1260;73717;-69
2023/01/22 02:18:03;;;;;;;41.10;23.90;;;;;;;3.06;100.00;100965.48;109009;1260;69877;-70
2023/01/22 02:20:35;;;;;;;34.00;21.10;;;;;;;3.05;100.00;100969.30;109053;1260;71682;-69
2023/01/22 02:23:03;;;;;;;39.20;22.80;;;;;;;3.01;100.00;100968.38;108987;1259;63423;-70
2023/01/22 02:25:32;;;;;;;32.70;20.40;;;;;;;2.99;100.00;100973.39;108962;1259;61267;-68
2023/01/22 02:28:00;;;;;;;34.10;21.30;;;;;;;3.00;100.00;100978.95;108949;1259;74230;-70
2023/01/22 02:30:27;;;;;;;35.80;21.10;;;;;;;3.02;100.00;100976.17;108969;1260;68327;-69
2023/01/22 02:32:54;;;;;;;37.20;21.40;;;;;;;3.07;100.00;100972.52;108950;1260;74626;-69
2023/01/22 02:35:22;;;;;;;41.40;24.50;;;;;;;3.03;100.00;100977.23;108961;1259;58235;-69
2023/01/22 02:37:49;;;;;;;39.50;22.40;;;;;;;3.02;100.00;100977.48;109010;1260;58883;-69
2023/01/22 02:40:16;;;;;;;38.20;23.10;;;;;;;2.99;100.00;100977.48;108973;1259;75828;-70
2023/01/22 02:42:44;;;;;;;34.40;20.70;;;;;;;3.01;100.00;100980.04;109011;1260;68553;-69
2023/01/22 02:45:11;;;;;;;34.40;20.90;;;;;;;3.04;100.00;100985.08;108968;1259;71696;-69
2023/01/22 02:47:37;;;;;;;40.90;22.70;;;;;;;3.00;100.00;100988.02;108933;1259;59306;-69
2023/01/22 02:50:05;;;;;;;37.00;21.80;;;;;;;3.02;100.00;100991.15;109069;1260;61323;-71
2023/01/22 02:52:32;;;;;;;35.30;20.90;;;;;;;3.02;100.00;100993.30;109060;1260;74445;-71
2023/01/22 02:54:58;;;;;;;36.60;22.20;;;;;;;2.96;100.00;100996.03;108985;1260;68852;-72
2023/01/22 02:57:29;;;;;;;46.10;26.30;;;;;;;2.94;100.00;100994.13;109047;1259;73032;-71
2023/01/22 02:59:58;;;;;;;40.50;22.50;;;;;;;3.01;100.00;100998.02;109062;1259;59986;-72
2023/01/22 03:02:25;;;;;;;36.90;20.50;;;;;;;3.09;100.00;100997.52;109016;1260;60932;-70
2023/01/22 03:05:02;;;;;;;35.80;20.20;;;;;;;3.10;100.00;101001.45;108973;1260;75894;-71
2023/01/22 03:07:40;;;;;;;36.20;22.80;;;;;;;3.10;100.00;100999.70;108983;1259;66920;-72
2023/01/22 03:10:19;;;;;;;37.30;21.90;;;;;;;3.12;100.00;101002.43;108963;1260;75039;-72
2023/01/22 03:21:15;;;;;;;30.80;19.80;;;;;;;3.19;100.00;101004.52;109078;1259;68576;-70
2023/01/22 03:23:45;;;;;;;39.40;22.40;;;;;;;3.24;100.00;101009.29;108862;1260;72706;-70
2023/01/22 03:26:15;;;;;;;37.40;20.60;;;;;;;3.17;100.00;101010.91;108962;1259;58266;-70
2023/01/22 03:28:44;;;;;;;40.10;22.00;;;;;;;3.13;100.00;101014.80;109082;1260;61242;-71
2023/01/22 03:31:12;;;;;;;32.00;20.00;;;;;;;3.16;100.00;101014.23;108877;1259;75775;-73
2023/01/22 03:33:40;;;;;;;37.70;22.20;;;;;;;3.19;100.00;101012.47;108955;1260;70299;-73
2023/01/22 03:36:09;;;;;;;36.60;21.30;;;;;;;3.26;100.00;101015.42;108938;1260;74961;-73
2023/01/22 03:38:39;;;;;;;31.90;19.90;;;;;;;3.25;100.00;101014.81;108913;1260;60008;-72
2023/01/22 03:41:13;;;;;;;33.10;18.60;;;;;;;3.24;100.00;101015.80;109030;1259;59281;-73
2023/01/22 03:43:42;;;;;;;;;;;;;;;3.25;100.00;101021.36;108949;1260;74017;-73
2023/01/22 03:46:14;;;;;;;35.70;21.80;;;;;;;3.25;100.00;101026.18;109072;1259;67806;-72
2023/01/22 03:48:42;;;;;;;32.40;19.70;;;;;;;3.25;100.00;101030.57;108896;1260;71664;-71
2023/01/22 03:51:13;;;;;;;29.00;18.60;;;;;;;3.25;100.00;101031.30;108784;1260;64194;-72
2023/01/22 03:53:41;;;;;;;31.40;17.30;;;;;;;3.26;100.00;101032.00;108993;1260;62339;-73
2023/01/22 03:56:19;;;;;;;27.10;18.40;;;;;;;3.26;100.00;101032.85;108968;1259;74049;-68
2023/01/22 03:58:47;;;;;;;31.00;19.50;;;;;;;3.26;100.00;101036.91;109065;1260;67739;-68
2023/01/22 04:01:16;;;;;;;28.00;18.00;;;;;;;3.23;100.00;101036.71;108966;1264;71163;-66
2023/01/22 04:03:43;;;;;;;28.60;17.20;;;;;;;3.18;100.00;101036.15;108942;1259;61376;-67
2023/01/22 04:06:11;;;;;;;27.70;19.10;;;;;;;3.15;100.00;101034.20;108946;1260;61355;-68
2023/01/22 04:08:40;;;;;;;29.40;17.90;;;;;;;3.16;100.00;101035.63;109074;1259;73488;-68
2023/01/22 04:11:08;;;;;;;31.60;19.90;;;;;;;3.19;100.00;101041.70;108970;1260;68461;-67
2023/01/22 04:13:36;;;;;;;28.60;17.20;;;;;;;3.21;100.00;101045.06;108970;1260;72727;-66
2023/01/22 04:16:05;;;;;;;30.50;18.00;;;;;;;3.25;100.00;101051.50;108901;1259;61840;-67
2023/01/22 04:19:05;;;;;;;31.10;19.70;;;;;;;3.27;100.00;101052.91;109025;1259;58700;-67
2023/01/22 04:21:47;;;;;;;26.10;16.80;;;;;;;3.21;100.00;101056.88;108967;1259;73812;-67
2023/01/22 04:24:15;;;;;;;28.30;18.90;;;;;;;3.16;100.00;101058.69;108969;1260;68064;-68
2023/01/22 04:26:42;;;;;;;29.00;18.90;;;;;;;3.13;100.00;101059.65;108863;1259;73012;-68
2023/01/22 04:29:11;;;;;;;29.10;18.40;;;;;;;3.13;100.00;101061.91;108892;1260;59654;-67
2023/01/22 04:31:39;;;;;;;38.10;19.80;;;;;;;3.17;100.00;101060.08;108894;1259;61510;-67
2023/01/22 04:34:26;;;;;;;24.00;17.30;;;;;;;3.22;100.00;101067.12;108972;1261;73535;-68
2023/01/22 04:37:00;;;;;;;29.70;18.60;;;;;;;3.23;100.00;101070.54;108874;1259;69591;-68
2023/01/22 04:39:31;;;;;;;29.60;18.20;;;;;;;3.19;100.00;101081.59;108854;1259;71085;-68
2023/01/22 04:41:59;;;;;;;30.50;19.00;;;;;;;3.21;100.00;101084.90;108873;1262;60696;-69
2023/01/22 04:44:27;;;;;;;27.30;18.00;;;;;;;3.24;100.00;101091.64;108960;1260;59190;-68
2023/01/22 04:46:56;;;;;;;31.40;18.60;;;;;;;3.29;100.00;101088.82;108972;1260;74323;-67
2023/01/22 04:49:24;;;;;;;34.00;17.30;;;;;;;3.28;100.00;101089.84;108967;1265;68734;-66
2023/01/22 04:51:53;;;;;;;30.60;17.50;;;;;;;3.25;100.00;101089.33;108952;1260;73876;-67
2023/01/22 04:54:21;;;;;;;29.40;19.40;;;;;;;3.20;100.00;101089.06;108874;1260;60860;-67
2023/01/22 04:56:50;;;;;;;28.60;16.50;;;;;;;3.18;100.00;101088.84;108962;1259;59199;-67
2023/01/22 04:59:18;;;;;;;26.90;17.60;;;;;;;3.17;100.00;101087.89;108932;1260;74100;-66
2023/01/22 05:01:49;;;;;;;30.10;18.90;;;;;;;3.19;100.00;101091.39;108952;1259;67790;-66
2023/01/22 05:04:16;;;;;;;28.60;17.70;;;;;;;3.13;100.00;101093.41;108968;1260;72980;-67
2023/01/22 05:06:45;;;;;;;25.90;18.00;;;;;;;3.09;100.00;101099.14;109002;1260;59646;-68
2023/01/22 05:09:14;;;;;;;27.90;18.30;;;;;;;3.06;100.00;101095.82;108945;1265;60079;-68
2023/01/22 05:11:57;;;;;;;24.40;16.30;;;;;;;3.09;100.00;101102.02;108961;1259;73901;-67
2023/01/22 05:14:27;;;;;;;28.00;18.50;;;;;;;3.13;100.00;101102.80;109031;1260;69959;-67
2023/01/22 05:16:58;;;;;;;29.10;17.90;;;;;;;3.17;100.00;101107.90;108817;1260;71781;-67
2023/01/22 05:19:28;;;;;;;25.90;15.80;;;;;;;3.18;100.00;101107.80;108934;1261;61454;-67
2023/01/22 05:21:58;;;;;;;26.90;16.80;;;;;;;3.11;100.00;101114.25;108904;1261;60554;-65
2023/01/22 05:24:29;;;;;;;32.80;20.10;;;;;;;3.06;100.00;101116.45;108894;1261;73965;-67
2023/01/22 05:26:59;;;;;;;28.50;18.80;;;;;;;2.98;100.00;101115.23;108925;1260;68295;-67
2023/01/22 05:29:36;;;;;;;29.80;18.30;;;;;;;2.93;100.00;101112.98;108899;1260;74973;-66
2023/01/22 05:32:24;;;;;;;32.10;18.50;;;;;;;2.92;100.00;101117.17;108960;1260;59875;-67
2023/01/22 05:34:57;;;;;;;28.30;17.00;;;;;;;2.95;100.00;101123.55;108907;1261;60747;-68
2023/01/22 05:37:28;;;;;;;25.30;17.30;;;;;;;2.95;100.00;101123.92;108922;1261;73495;-67
2023/01/22 05:39:58;;;;;;;26.00;16.10;;;;;;;2.99;100.00;101118.70;108923;1260;66523;-67
2023/01/22 05:42:32;;;;;;;27.70;16.80;;;;;;;3.06;100.00;101125.74;108898;1263;72279;-69
2023/01/22 05:45:03;;;;;;;30.60;16.80;;;;;;;3.02;100.00;101128.77;108903;1260;59697;-69
2023/01/22 05:47:40;;;;;;;28.60;16.10;;;;;;;2.90;100.00;101133.27;108818;1260;58111;-68
2023/01/22 05:50:14;;;;;;;26.00;16.80;;;;;;;2.82;100.00;101136.85;108840;1261;74285;-69
2023/01/22 05:52:47;;;;;;;27.80;16.10;;;;;;;2.73;100.00;101139.73;108984;1260;68746;-68
2023/01/22 05:55:18;;;;;;;26.30;15.60;;;;;;;2.67;100.00;101145.23;108893;1260;74011;-66
2023/01/22 05:57:48;;;;;;;25.90;16.40;;;;;;;2.61;100.00;101143.89;108960;1263;59918;-67
2023/01/22 06:00:19;;;;;;;28.80;18.50;;;;;;;2.57;100.00;101149.76;108915;1261;61463;-67
2023/01/22 06:02:56;;;;;;;24.60;15.90;;;;;;;2.56;100.00;101152.52;108895;1260;71798;-66
2023/01/22 06:05:26;;;;;;;20.70;14.80;;;;;;;2.59;100.00;101155.24;108889;1260;67924;-67
2023/01/22 06:08:03;;;;;;;25.80;15.20;;;;;;;2.61;100.00;101158.70;108933;1260;72363;-66
2023/01/22 06:10:38;;;;;;;23.40;16.40;;;;;;;2.63;100.00;101160.96;108890;1261;61127;-67
2023/01/22 06:21:21;;;;;;;28.20;18.50;;;;;;;2.66;100.00;101171.09;102331;1299;600894;-68
2023/01/22 06:23:49;;;;;;;27.40;17.50;;;;;;;2.64;100.00;101177.55;104483;1269;61719;-67
2023/01/22 06:26:16;;;;;;;24.80;16.20;;;;;;;2.67;100.00;101179.10;104991;1271;60517;-68
2023/01/22 06:28:43;;;;;;;24.60;14.60;;;;;;;2.70;100.00;101181.69;104258;1277;72316;-68
2023/01/22 06:31:11;;;;;;;23.60;13.90;;;;;;;2.73;100.00;101187.62;105015;1263;67032;-70
2023/01/22 06:33:40;;;;;;;23.60;15.00;;;;;;;2.72;100.00;101192.30;105054;1260;74494;-68
2023/01/22 06:36:07;;;;;;;22.10;15.50;;;;;;;2.69;100.00;101193.10;104967;1257;562346;-68
2023/01/22 06:38:35;;;;;;;28.00;16.20;;;;;;;2.67;100.00;101193.77;105268;1258;62778;-69
2023/01/22 06:41:03;;;;;;;30.40;15.30;;;;;;;2.63;100.00;101199.60;105217;1260;72948;-69
2023/01/22 06:43:30;;;;;;;28.00;16.40;;;;;;;2.64;100.00;101200.96;105080;1264;69263;-70
2023/01/22 06:45:58;;;;;;;30.80;18.20;;;;;;;2.63;100.00;101203.69;105098;1263;72883;-70
2023/01/22 06:48:48;;;;;;;26.70;16.40;;;;;;;2.64;100.00;101211.55;105030;1263;62374;-68
2023/01/22 06:51:15;;;;;;;23.80;16.30;;;;;;;2.62;100.00;101216.54;105082;1263;59709;-69
2023/01/22 06:53:43;;;;;;;32.10;17.90;;;;;;;2.62;100.00;101226.83;104976;1260;72754;-68
2023/01/22 06:56:10;;;;;;;25.90;16.20;;;;;;;2.64;100.00;101228.76;105231;1261;68878;-70
2023/01/22 06:58:38;;;;;;;25.90;16.80;;;;;;;2.69;100.00;101230.77;105126;1263;73069;-69
2023/01/22 07:01:05;;;;;;;31.50;17.90;;;;;;;2.70;100.00;101233.58;105175;1260;63174;-70
2023/01/22 07:03:32;;;;;;;35.90;17.50;;;;;;;2.65;100.00;101235.49;105273;1262;59719;-70
2023/01/22 07:06:01;;;;;;;31.30;18.60;;;;;;;2.64;100.00;101238.98;105308;1263;73736;-69
2023/01/22 07:08:29;;;;;;;34.70;18.90;;;;;;;2.62;100.00;101241.70;105332;1263;68991;-68
2023/01/22 07:10:57;;;;;;;35.00;19.60;;;;;;;2.59;100.00;101240.36;105148;1260;75399;-69
2023/01/22 07:13:23;;;;;;;36.30;19.20;;;;;;;2.57;100.00;101245.73;105298;1258;60579;-68
2023/01/22 07:15:50;;;;;;;33.30;22.20;;;;;;;2.53;100.00;101246.54;105014;1265;59731;-70
2023/01/22 07:18:19;;;;;;;30.60;19.10;;;;;;;2.53;100.00;101246.90;104919;1266;73672;-69
2023/01/22 07:20:46;;;;;;;32.60;21.40;;;;;;;2.54;100.00;101242.98;104902;1266;69302;-69
2023/01/22 07:23:13;;;;;;;40.00;23.10;;;;;;;2.54;100.00;101244.66;104864;1260;75062;-67
2023/01/22 07:25:40;;;;;;;48.00;28.60;;;;;;;2.52;100.00;101244.85;105200;1259;61853;-68
2023/01/22 07:28:07;;;;;;;44.30;27.10;;;;;;;2.57;100.00;101245.77;104762;1261;62543;-69
2023/01/22 07:30:34;;;;;;;49.60;30.60;;;;;;;2.62;100.00;101249.77;104902;1260;73252;-70
2023/01/22 07:33:01;;;;;;;46.40;28.80;;;;;;;2.60;100.00;101246.88;104840;1261;70571;-68
2023/01/22 07:35:28;;;;;;;41.40;24.50;;;;;;;2.57;100.00;101249.98;104766;1260;72771;-70
2023/01/22 07:37:56;;;;;;;36.50;21.60;;;;;;;2.52;100.00;101249.13;104940;1267;61431;-70
2023/01/22 07:40:23;;;;;;;34.00;19.00;;;;;;;2.49;100.00;101250.48;105144;1263;59538;-70
2023/01/22 07:42:51;;;;;;;28.40;18.70;;;;;;;2.45;100.00;101249.45;105196;1257;71550;-68
2023/01/22 07:45:18;;;;;;;26.10;17.00;;;;;;;2.41;100.00;101253.59;105161;1260;69247;-69
2023/01/22 07:47:53;;;;;;;22.80;17.60;;;;;;;2.36;100.00;101256.45;105239;1260;75304;-70
2023/01/22 07:50:21;;;;;;;23.60;16.00;;;;;;;2.33;100.00;101259.98;105348;1257;60502;-69
2023/01/22 07:52:48;;;;;;;27.80;17.60;;;;;;;2.34;100.00;101268.54;105313;1257;60701;-67
2023/01/22 07:55:15;;;;;;;29.00;17.20;;;;;;;2.38;100.00;101262.30;105330;1258;72153;-68
2023/01/22 07:57:42;;;;;;;25.80;15.60;;;;;;;2.44;100.00;101266.81;105117;1262;70332;-70
2023/01/22 08:00:09;;;;;;;30.90;19.30;;;;;;;2.46;100.00;101270.67;105409;1260;74932;-69
2023/01/22 08:02:40;;;;;;;33.70;20.70;;;;;;;2.48;100.00;101273.98;105135;1262;62550;-68
2023/01/22 08:05:08;;;;;;;29.80;19.80;;;;;;;2.52;100.00;101274.75;105173;1259;61614;-68
2023/01/22 08:07:35;;;;;;;27.70;17.80;;;;;;;2.53;100.00;101275.79;105485;1260;73451;-69
2023/01/22 08:10:02;;;;;;;27.50;17.80;;;;;;;2.52;100.00;101274.92;105209;1257;68403;-70
2023/01/22 08:12:29;;;;;;;28.50;17.70;;;;;;;2.48;100.00;101275.88;105206;1257;73397;-69
2023/01/22 08:14:56;;;;;;;31.90;20.10;;;;;;;2.50;100.00;101274.15;105434;1258;59748;-68
2023/01/22 08:17:23;;;;;;;31.50;18.60;;;;;;;2.49;100.00;101276.14;105356;1258;62341;-71
2023/01/22 08:19:50;;;;;;;27.40;18.70;;;;;;;2.47;100.00;101274.73;105287;1262;75167;-70
2023/01/22 08:22:17;;;;;;;30.20;18.90;;;;;;;2.43;100.00;101282.31;105364;1257;68793;-69
2023/01/22 08:24:43;;;;;;;29.30;18.40;;;;;;;2.44;100.00;101283.11;105330;1257;75718;-70
2023/01/22 08:27:10;;;;;;;31.20;18.80;;;;;;;2.45;100.00;101284.58;105403;1257;62395;-70
2023/01/22 08:29:37;;;;;;;34.10;20.10;;;;;;;2.47;100.00;101287.67;105405;1261;62706;-68
2023/01/22 08:32:05;;;;;;;30.70;19.30;;;;;;;2.50;100.00;101288.22;105268;1261;73906;-70
2023/01/22 08:34:33;;;;;;;35.70;20.20;;;;;;;2.50;100.00;101290.38;105442;1257;67698;-69
2023/01/22 08:37:00;;;;;;;28.10;19.10;;;;;;;2.47;100.00;101291.83;105399;1257;75152;-68
2023/01/22 08:39:26;;;;;;;27.70;19.00;;;;;;;2.43;100.00;101287.26;105259;1260;61929;-69
2023/01/22 08:41:56;;;;;;;32.70;20.40;;;;;;;2.40;100.00;101290.40;105345;1257;61398;-68
2023/01/22 08:44:24;;;;;;;35.40;21.80;;;;;;;2.38;100.00;101289.73;105364;1257;72821;-70
2023/01/22 08:46:51;;;;;;;31.40;19.50;;;;;;;2.41;100.00;101290.34;105500;1257;69501;-67
2023/01/22 08:49:20;;;;;;;34.30;21.50;;;;;;;2.42;100.00;101292.27;105336;1257;73933;-68
2023/01/22 08:51:49;;;;;;;38.60;22.60;;;;;;;2.40;100.00;101290.00;105396;1262;62428;-68
2023/01/22 08:54:17;;;;;;;32.60;19.70;;;;;;;2.39;100.00;101290.29;105243;1257;61334;-70
2023/01/22 08:56:43;;;;;;;32.80;18.60;;;;;;;2.43;100.00;101288.52;105331;1259;73538;-68
2023/01/22 08:59:10;;;;;;;32.90;20.40;;;;;;;2.43;100.00;101289.58;105360;1260;68357;-69
2023/01/22 09:01:37;;;;;;;28.90;18.50;;;;;;;2.42;100.00;101288.21;105291;1257;75193;-69
2023/01/22 09:04:06;;;;;;;25.60;17.60;;;;;;;2.44;100.00;101288.60;105297;1260;61339;-70
2023/01/22 09:06:34;;;;;;;31.00;20.00;;;;;;;2.43;100.00;101292.55;105402;1257;61551;-70
2023/01/22 09:09:01;;;;;;;30.10;18.10;;;;;;;2.42;100.00;101291.23;105203;1256;75716;-69
2023/01/22 09:11:28;;;;;;;30.60;18.80;;;;;;;2.43;100.00;101294.67;105251;1260;67854;-69
2023/01/22 09:13:56;;;;;;;34.60;19.30;;;;;;;2.41;100.00;101296.33;105243;1257;73559;-70
2023/01/22 09:16:23;;;;;;;34.20;21.40;;;;;;;2.40;100.00;101296.80;105457;1257;61812;-68
2023/01/22 09:18:50;;;;;;;30.70;20.10;;;;;;;2.41;100.00;101292.06;105385;1256;62086;-71
2023/01/22 09:21:17;;;;;;;30.90;19.30;;;;;;;2.42;100.00;101294.45;105362;1261;75441;-68
2023/01/22 09:23:44;;;;;;;30.90;18.10;;;;;;;2.39;100.00;101295.64;105444;1262;69241;-72
2023/01/22 09:26:11;;;;;;;36.00;21.20;;;;;;;2.36;100.00;101295.44;105234;1257;73664;-70
2023/01/22 09:28:38;;;;;;;43.00;24.20;;;;;;;2.35;100.00;101295.80;105097;1256;62037;-70
2023/01/22 09:31:05;;;;;;;32.40;21.30;;;;;;;2.36;100.00;101303.77;105304;1262;60594;-69
2023/01/22 09:33:32;;;;;;;30.20;20.40;;;;;;;2.34;100.00;101303.58;105231;1256;74954;-71
2023/01/22 09:36:07;;;;;;;26.80;18.60;;;;;;;2.34;100.00;101306.63;104959;1257;68357;-71
2023/01/22 09:38:34;;;;;;;25.90;19.90;;;;;;;2.33;100.00;101305.63;105216;1258;74678;-70
2023/01/22 09:41:02;;;;;;;28.60;17.00;;;;;;;2.34;100.00;101309.84;105035;1258;60658;-70
2023/01/22 09:43:29;;;;;;;28.80;17.10;;;;;;;2.38;100.00;101315.38;105034;1256;61237;-69
2023/01/22 09:45:57;;;;;;;26.00;17.00;;;;;;;2.44;100.00;101316.64;105328;1256;72405;-68
2023/01/22 09:48:29;;;;;;;25.80;17.30;;;;;;;2.49;100.00;101312.49;105357;1258;66425;-70
2023/01/22 12:07:34;;;;;;;30.80;18.20;;;;;;;1.72;100.00;101347.94;103143;1288;600819;-69
2023/01/22 12:10:16;;;;;;;31.80;18.30;;;;;;;1.69;100.00;101352.05;104744;1274;62804;-69
2023/01/22 12:12:50;;;;;;;28.30;19.80;;;;;;;1.70;100.00;101353.92;104714;1274;63108;-67
2023/01/22 12:15:26;;;;;;;28.40;19.20;;;;;;;1.75;100.00;101356.95;108195;1269;74460;-68
2023/01/22 12:18:24;;;;;;;26.40;18.70;;;;;;;1.84;100.00;101358.94;108196;1269;68969;-69
2023/01/22 12:21:07;;;;;;;33.40;16.60;;;;;;;1.90;100.00;101356.70;107827;1267;516148;-68
2023/01/22 12:23:41;;;;;;;18.00;15.70;;;;;;;1.93;100.00;101354.65;109038;1256;63311;-69
2023/01/22 12:26:22;;;;;;;16.70;13.30;;;;;;;1.95;100.00;101359.42;109063;1257;60238;-69
2023/01/22 12:29:07;;;;;;;20.80;14.80;;;;;;;1.98;100.00;101363.48;109147;1257;71152;-69
2023/01/22 12:31:49;;;;;;;21.60;16.10;;;;;;;2.05;100.00;101361.19;109239;1256;67031;-70
2023/01/22 12:34:21;;;;;;;22.30;17.20;;;;;;;2.15;100.00;101360.74;109191;1255;72413;-68
2023/01/22 12:36:48;;;;;;;19.80;15.00;;;;;;;2.24;100.00;101362.80;109045;1256;60291;-72
2023/01/22 12:39:25;;;;;;;21.90;14.70;;;;;;;2.32;100.00;101362.36;109054;1256;62301;-68
2023/01/22 12:42:05;;;;;;;25.30;18.20;;;;;;;2.38;100.00;101367.42;109021;1254;71987;-71
2023/01/22 12:44:45;;;;;;;24.90;18.70;;;;;;;2.36;100.00;101368.49;109056;1255;69010;-68
2023/01/22 12:47:14;;;;;;;24.20;17.70;;;;;;;2.35;100.00;101371.20;109054;1257;71949;-71
2023/01/22 12:49:49;;;;;;;20.40;14.90;;;;;;;2.37;100.00;101371.78;109009;1256;60622;-71
2023/01/22 12:52:26;;;;;;;20.90;15.30;;;;;;;2.33;100.00;101372.56;108992;1256;62029;-73
2023/01/22 12:54:53;;;;;;;19.00;14.50;;;;;;;2.34;100.00;101371.88;109049;1257;71429;-73
2023/01/22 12:57:20;;;;;;;22.90;17.70;;;;;;;2.37;100.00;101372.62;109000;1256;67843;-72
2023/01/22 12:59:54;;;;;;;22.20;14.70;;;;;;;2.33;100.00;101372.59;109187;1256;72930;-74
2023/01/22 13:02:29;;;;;;;18.40;12.10;;;;;;;2.24;100.00;101375.55;109160;1256;59886;-74
2023/01/22 13:04:56;;;;;;;15.20;12.10;;;;;;;2.15;100.00;101378.73;109152;1256;60778;-76
2023/01/22 13:07:34;;;;;;;21.60;14.80;;;;;;;2.12;100.00;101381.55;109022;1256;73008;-74
2023/01/22 13:10:06;;;;;;;14.10;11.50;;;;;;;2.14;100.00;101386.68;109192;1255;67725;-74
2023/01/22 13:12:44;;;;;;;17.00;12.90;;;;;;;2.12;100.00;101387.78;109251;1256;72725;-75
2023/01/22 13:15:20;;;;;;;19.70;15.70;;;;;;;2.11;100.00;101387.29;109142;1256;63148;-75
2023/01/22 13:18:26;;;;;;;14.70;11.70;;;;;;;2.08;100.00;101386.37;108410;1256;1002451;-74
2023/01/22 13:20:59;;;;;;;13.80;11.30;;;;;;;2.12;100.00;101388.62;109112;1257;71046;-74
2023/01/22 13:23:26;;;;;;;15.10;11.80;;;;;;;2.20;100.00;101389.84;109249;1256;69262;-77
2023/01/22 13:25:54;;;;;;;16.10;12.30;;;;;;;2.26;100.00;101392.73;109078;1256;71528;-77
2023/01/22 13:28:23;;;;;;;15.20;11.70;;;;;;;2.26;100.00;101393.73;109038;1257;62427;-72
2023/01/22 13:31:01;;;;;;;12.50;9.80;;;;;;;2.22;100.00;101395.59;109159;1256;59775;-80
2023/01/22 13:33:28;;;;;;;13.30;9.70;;;;;;;2.22;100.00;101395.79;109121;1261;74279;-68
2023/01/22 13:35:55;;;;;;;14.80;11.70;;;;;;;2.23;100.00;101401.15;109137;1256;68757;-70
2023/01/22 13:38:23;;;;;;;21.50;12.80;;;;;;;2.22;100.00;101406.25;109114;1256;71522;-69
2023/01/22 13:40:56;;;;;;;14.20;10.30;;;;;;;2.10;100.00;101407.19;109196;1256;61110;-68
2023/01/22 13:43:24;;;;;;;21.70;14.50;;;;;;;2.05;100.00;101409.83;109153;1257;59993;-71
2023/01/22 13:45:51;;;;;;;23.90;14.10;;;;;;;2.03;100.00;101413.26;109112;1256;75181;-70
2023/01/22 13:48:20;;;;;;;26.50;17.40;;;;;;;1.97;100.00;101420.96;109110;1257;68903;-71